createdAt,value
2016-11-01T00:00:19.735Z,92.32
2016-11-01T00:01:19.705Z,91.94
2016-11-01T00:02:19.662Z,92.22
2016-11-01T00:03:19.625Z,92.22
2016-11-01T00:04:19.586Z,92.22
2016-11-01T00:05:19.545Z,92.13
2016-11-01T00:06:19.508Z,91.85
2016-11-01T00:07:19.471Z,91.85
2016-11-01T00:08:19.441Z,91.94
2016-11-01T00:09:19.398Z,91.75
2016-11-01T00:10:19.058Z,91.94
2016-11-01T00:11:19.317Z,92.03
2016-11-01T00:12:18.980Z,91.75
2016-11-01T00:13:19.242Z,92.13
2016-11-01T00:14:19.232Z,91.75
2016-11-01T00:15:19.196Z,91.85
2016-11-01T00:16:19.130Z,91.85
2016-11-01T00:17:18.795Z,92.13
2016-11-01T00:18:19.056Z,92.13
2016-11-01T00:19:18.716Z,91.94
2016-11-01T00:20:18.981Z,91.75
2016-11-01T00:21:18.939Z,91.47
2016-11-01T00:22:18.898Z,91.75
2016-11-01T00:23:18.866Z,91.66
2016-11-01T00:24:18.828Z,91.47
2016-11-01T00:25:18.791Z,91.75
2016-11-01T00:26:18.449Z,91.66
2016-11-01T00:27:18.712Z,91.75
2016-11-01T00:28:18.679Z,91.56
2016-11-01T00:29:18.642Z,91.66
2016-11-01T00:30:18.600Z,91.56
2016-11-01T00:31:18.560Z,91.94
2016-11-01T00:32:18.220Z,91.75
2016-11-01T00:33:18.483Z,91.75
2016-11-01T00:34:18.144Z,91.94
2016-11-01T00:35:18.108Z,91.94
2016-11-01T00:36:18.371Z,91.75
2016-11-01T00:37:18.333Z,91.75
2016-11-01T00:38:17.995Z,91.75
2016-11-01T00:39:18.257Z,91.75
2016-11-01T00:40:17.919Z,91.47
2016-11-01T00:41:18.185Z,91.28
2016-11-01T00:42:18.144Z,91.75
2016-11-01T00:43:18.105Z,91.75
2016-11-01T00:44:17.764Z,91.66
2016-11-01T00:45:18.028Z,91.56
2016-11-01T00:46:17.992Z,91.66
2016-11-01T00:47:17.957Z,91.66
2016-11-01T00:48:17.915Z,91.75
2016-11-01T00:49:17.878Z,91.66
2016-11-01T00:50:17.842Z,91.37
2016-11-01T00:51:17.508Z,91.37
2016-11-01T00:52:17.764Z,91.75
2016-11-01T00:53:17.728Z,91.85
2016-11-01T00:54:17.387Z,91.85
2016-11-01T00:55:17.356Z,91.47
2016-11-01T00:56:17.610Z,91.75
2016-11-01T00:57:17.583Z,91.56
2016-11-01T00:58:17.538Z,91.66
2016-11-01T00:59:17.498Z,91.47
2016-11-01T01:00:17.461Z,91.75
2016-11-01T01:01:17.122Z,91.85
2016-11-01T01:02:17.384Z,91.75
2016-11-01T01:03:17.346Z,92.32
2016-11-01T01:04:17.006Z,91.75
2016-11-01T01:05:17.275Z,92.32
2016-11-01T01:06:17.229Z,91.75
2016-11-01T01:07:17.192Z,91.94
2016-11-01T01:08:17.167Z,91.75
2016-11-01T01:09:17.117Z,91.75
2016-11-01T01:10:17.082Z,91.94
2016-11-01T01:11:17.043Z,92.13
2016-11-01T01:12:17.002Z,91.75
2016-11-01T01:13:16.664Z,91.94
2016-11-01T01:14:16.929Z,92.03
2016-11-01T01:15:16.891Z,91.75
2016-11-01T01:16:16.857Z,91.75
2016-11-01T01:17:16.812Z,91.66
2016-11-01T01:18:16.777Z,91.85
2016-11-01T01:19:16.738Z,91.94
2016-11-01T01:20:16.400Z,91.94
2016-11-01T01:21:16.706Z,91.75
2016-11-01T01:22:16.321Z,91.94
2016-11-01T01:23:16.587Z,91.85
2016-11-01T01:24:16.246Z,91.85
2016-11-01T01:25:16.510Z,91.75
2016-11-01T01:26:16.470Z,91.85
2016-11-01T01:27:16.433Z,91.94
2016-11-01T01:28:16.399Z,91.75
2016-11-01T01:29:16.360Z,91.75
2016-11-01T01:30:16.321Z,91.85
2016-11-01T01:31:16.285Z,91.75
2016-11-01T01:32:16.247Z,92.13
2016-11-01T01:33:16.206Z,91.75
2016-11-01T01:34:16.170Z,91.75
2016-11-01T01:35:16.128Z,91.75
2016-11-01T01:36:15.790Z,91.75
2016-11-01T01:37:16.054Z,91.94
2016-11-01T01:38:16.016Z,92.13
2016-11-01T01:39:15.677Z,91.85
2016-11-01T01:40:15.941Z,91.85
2016-11-01T01:41:15.902Z,91.66
2016-11-01T01:42:15.565Z,92.03
2016-11-01T01:43:15.828Z,91.94
2016-11-01T01:44:15.790Z,91.85
2016-11-01T01:45:15.465Z,91.94
2016-11-01T01:46:15.717Z,91.94
2016-11-01T01:47:15.674Z,91.75
2016-11-01T01:48:15.336Z,91.94
2016-11-01T01:49:15.599Z,91.94
2016-11-01T01:50:15.563Z,91.94
2016-11-01T01:51:15.524Z,91.94
2016-11-01T01:52:15.484Z,92.03
2016-11-01T01:53:15.482Z,91.94
2016-11-01T01:54:15.407Z,91.75
2016-11-01T01:55:15.068Z,91.75
2016-11-01T01:56:15.335Z,91.94
2016-11-01T01:57:15.296Z,91.85
2016-11-01T01:58:15.257Z,91.85
2016-11-01T01:59:14.917Z,91.85
2016-11-01T02:00:15.186Z,91.94
2016-11-01T02:01:15.141Z,92.22
2016-11-01T02:02:14.809Z,92.22
2016-11-01T02:03:15.069Z,92.22
2016-11-01T02:04:15.031Z,92.32
2016-11-01T02:05:14.989Z,92.32
2016-11-01T02:06:14.652Z,92.32
2016-11-01T02:07:14.915Z,92.03
2016-11-01T02:08:14.878Z,92.51
2016-11-01T02:09:14.845Z,92.41
2016-11-01T02:10:14.803Z,92.22
2016-11-01T02:11:14.766Z,92.51
2016-11-01T02:12:14.729Z,92.61
2016-11-01T02:13:14.687Z,92.51
2016-11-01T02:14:14.650Z,92.51
2016-11-01T02:15:14.613Z,92.41
2016-11-01T02:16:14.582Z,92.51
2016-11-01T02:17:14.540Z,92.41
2016-11-01T02:18:14.500Z,92.51
2016-11-01T02:19:14.157Z,92.51
2016-11-01T02:20:14.116Z,92.41
2016-11-01T02:21:14.083Z,92.32
2016-11-01T02:22:14.040Z,92.41
2016-11-01T02:23:14.307Z,92.32
2016-11-01T02:24:14.270Z,92.32
2016-11-01T02:25:14.234Z,92.32
2016-11-01T02:26:14.194Z,92.32
2016-11-01T02:27:14.151Z,92.22
2016-11-01T02:28:14.116Z,92.51
2016-11-01T02:29:14.079Z,92.22
2016-11-01T02:30:14.038Z,92.13
2016-11-01T02:31:14.002Z,92.22
2016-11-01T02:32:13.962Z,92.41
2016-11-01T02:33:13.933Z,92.89
2016-11-01T02:34:13.893Z,92.99
2016-11-01T02:35:13.549Z,92.89
2016-11-01T02:36:13.812Z,92.99
2016-11-01T02:37:13.772Z,92.99
2016-11-01T02:38:13.434Z,92.99
2016-11-01T02:39:13.397Z,92.7
2016-11-01T02:40:13.699Z,92.89
2016-11-01T02:41:13.620Z,92.8
2016-11-01T02:42:13.584Z,92.8
2016-11-01T02:43:13.546Z,92.99
2016-11-01T02:44:13.509Z,92.41
2016-11-01T02:45:13.469Z,92.7
2016-11-01T02:46:13.429Z,92.89
2016-11-01T02:47:13.396Z,92.8
2016-11-01T02:48:13.357Z,92.99
2016-11-01T02:49:13.321Z,92.8
2016-11-01T02:50:13.279Z,92.99
2016-11-01T02:51:13.244Z,92.99
2016-11-01T02:52:13.205Z,92.99
2016-11-01T02:53:13.167Z,92.89
2016-11-01T02:54:13.127Z,92.32
2016-11-01T02:55:13.091Z,92.61
2016-11-01T02:56:13.050Z,93.08
2016-11-01T02:57:13.012Z,92.99
2016-11-01T02:58:12.975Z,92.99
2016-11-01T02:59:12.940Z,93.18
2016-11-01T03:00:12.902Z,93.08
2016-11-01T03:01:12.860Z,93.27
2016-11-01T03:02:12.822Z,92.99
2016-11-01T03:03:12.485Z,93.18
2016-11-01T03:04:12.748Z,92.99
2016-11-01T03:05:12.711Z,93.18
2016-11-01T03:06:12.669Z,92.99
2016-11-01T03:07:12.633Z,92.89
2016-11-01T03:08:12.593Z,93.08
2016-11-01T03:09:12.557Z,92.99
2016-11-01T03:10:12.215Z,92.89
2016-11-01T03:11:12.478Z,92.61
2016-11-01T03:12:12.443Z,93.18
2016-11-01T03:13:12.403Z,93.08
2016-11-01T03:14:12.367Z,93.18
2016-11-01T03:15:12.365Z,93.27
2016-11-01T03:16:12.288Z,93.18
2016-11-01T03:17:12.250Z,92.99
2016-11-01T03:18:11.912Z,93.18
2016-11-01T03:19:12.176Z,93.27
2016-11-01T03:20:11.836Z,93.46
2016-11-01T03:21:12.100Z,92.8
2016-11-01T03:22:12.060Z,92.99
2016-11-01T03:23:12.025Z,93.08
2016-11-01T03:24:11.683Z,93.18
2016-11-01T03:25:11.949Z,93.08
2016-11-01T03:26:11.908Z,92.99
2016-11-01T03:27:11.870Z,93.18
2016-11-01T03:28:11.831Z,93.08
2016-11-01T03:29:11.792Z,93.18
2016-11-01T03:30:11.757Z,93.08
2016-11-01T03:31:11.717Z,93.18
2016-11-01T03:32:11.678Z,92.89
2016-11-01T03:33:11.641Z,93.08
2016-11-01T03:34:11.601Z,93.18
2016-11-01T03:35:11.563Z,93.08
2016-11-01T03:36:11.523Z,93.18
2016-11-01T03:37:11.190Z,93.27
2016-11-01T03:38:11.452Z,93.18
2016-11-01T03:39:11.418Z,93.46
2016-11-01T03:40:11.372Z,92.8
2016-11-01T03:41:11.337Z,93.37
2016-11-01T03:42:11.299Z,93.37
2016-11-01T03:43:11.259Z,93.46
2016-11-01T03:44:11.221Z,93.27
2016-11-01T03:45:11.186Z,93.55
2016-11-01T03:46:11.144Z,93.46
2016-11-01T03:47:11.108Z,93.18
2016-11-01T03:48:11.065Z,93.46
2016-11-01T03:49:11.030Z,93.37
2016-11-01T03:50:10.991Z,93.46
2016-11-01T03:51:10.951Z,93.18
2016-11-01T03:52:10.915Z,93.27
2016-11-01T03:53:10.879Z,93.46
2016-11-01T03:54:10.838Z,93.37
2016-11-01T03:55:10.801Z,93.37
2016-11-01T03:56:10.760Z,93.27
2016-11-01T03:57:10.721Z,93.55
2016-11-01T03:58:10.684Z,93.08
2016-11-01T03:59:10.649Z,93.46
2016-11-01T04:00:10.609Z,93.46
2016-11-01T04:01:10.574Z,93.55
2016-11-01T04:02:10.235Z,93.46
2016-11-01T04:03:10.495Z,93.46
2016-11-01T04:04:10.457Z,93.46
2016-11-01T04:05:10.419Z,93.46
2016-11-01T04:06:10.381Z,93.37
2016-11-01T04:07:10.041Z,93.37
2016-11-01T04:08:10.305Z,93.37
2016-11-01T04:09:10.270Z,93.18
2016-11-01T04:10:10.227Z,93.18
2016-11-01T04:11:10.192Z,93.18
2016-11-01T04:12:09.846Z,93.46
2016-11-01T04:13:10.112Z,93.46
2016-11-01T04:14:10.075Z,93.46
2016-11-01T04:15:10.036Z,93.27
2016-11-01T04:16:09.996Z,93.46
2016-11-01T04:17:09.958Z,93.46
2016-11-01T04:18:09.921Z,93.18
2016-11-01T04:19:09.881Z,93.46
2016-11-01T04:20:09.843Z,93.55
2016-11-01T04:21:09.806Z,93.18
2016-11-01T04:22:09.768Z,93.18
2016-11-01T04:23:09.734Z,93.27
2016-11-01T04:24:09.693Z,93.18
2016-11-01T04:25:09.649Z,93.46
2016-11-01T04:26:09.613Z,93.18
2016-11-01T04:27:09.577Z,93.18
2016-11-01T04:28:09.541Z,93.18
2016-11-01T04:29:09.499Z,93.37
2016-11-01T04:30:09.461Z,93.37
2016-11-01T04:31:09.423Z,93.37
2016-11-01T04:32:09.383Z,93.32
2016-11-01T04:33:09.343Z,93.94
2016-11-01T04:34:09.308Z,93.94
2016-11-01T04:35:09.271Z,94.03
2016-11-01T04:36:08.934Z,93.41
2016-11-01T04:37:09.193Z,93.75
2016-11-01T04:38:09.153Z,94.03
2016-11-01T04:39:08.812Z,94.03
2016-11-01T04:40:09.075Z,93.75
2016-11-01T04:41:08.744Z,93.46
2016-11-01T04:42:09.001Z,93.75
2016-11-01T04:43:08.969Z,93.46
2016-11-01T04:44:08.926Z,93.32
2016-11-01T04:45:08.886Z,93.27
2016-11-01T04:46:08.848Z,93.46
2016-11-01T04:47:08.809Z,93.18
2016-11-01T04:48:08.772Z,93.13
2016-11-01T04:49:08.732Z,93.32
2016-11-01T04:50:08.696Z,93.46
2016-11-01T04:51:08.655Z,93.23
2016-11-01T04:52:08.619Z,93.32
2016-11-01T04:53:08.580Z,93.41
2016-11-01T04:54:08.546Z,93.32
2016-11-01T04:55:08.507Z,93.79
2016-11-01T04:56:08.463Z,93.79
2016-11-01T04:57:08.427Z,93.79
2016-11-01T04:58:08.387Z,93.89
2016-11-01T04:59:08.353Z,93.89
2016-11-01T05:00:08.013Z,93.89
2016-11-01T05:01:08.276Z,93.51
2016-11-01T05:02:08.236Z,93.89
2016-11-01T05:03:08.196Z,93.89
2016-11-01T05:04:07.854Z,93.79
2016-11-01T05:05:08.119Z,93.89
2016-11-01T05:06:08.114Z,93.79
2016-11-01T05:07:08.051Z,94.03
2016-11-01T05:08:08.006Z,93.7
2016-11-01T05:09:07.967Z,93.7
2016-11-01T05:10:07.626Z,93.79
2016-11-01T05:11:07.889Z,93.89
2016-11-01T05:12:07.857Z,93.89
2016-11-01T05:13:07.814Z,93.89
2016-11-01T05:14:07.787Z,93.89
2016-11-01T05:15:07.737Z,93.89
2016-11-01T05:16:07.697Z,93.51
2016-11-01T05:17:07.660Z,93.51
2016-11-01T05:18:07.622Z,93.32
2016-11-01T05:19:07.587Z,93.51
2016-11-01T05:20:07.545Z,93.51
2016-11-01T05:21:07.506Z,93.32
2016-11-01T05:22:07.467Z,93.84
2016-11-01T05:23:07.429Z,93.84
2016-11-01T05:24:07.394Z,93.94
2016-11-01T05:25:07.051Z,93.89
2016-11-01T05:26:07.313Z,93.79
2016-11-01T05:27:07.277Z,93.94
2016-11-01T05:28:06.935Z,94.08
2016-11-01T05:29:07.196Z,93.7
2016-11-01T05:30:07.159Z,93.99
2016-11-01T05:31:07.121Z,93.46
2016-11-01T05:32:07.085Z,93.41
2016-11-01T05:33:07.047Z,93.32
2016-11-01T05:34:07.005Z,93.32
2016-11-01T05:35:06.667Z,93.32
2016-11-01T05:36:06.929Z,93.41
2016-11-01T05:37:06.890Z,93.13
2016-11-01T05:38:06.551Z,93.37
2016-11-01T05:39:06.813Z,93.37
2016-11-01T05:40:06.472Z,93.18
2016-11-01T05:41:06.736Z,93.23
2016-11-01T05:42:06.397Z,93.51
2016-11-01T05:43:06.377Z,93.13
2016-11-01T05:44:06.622Z,93.04
2016-11-01T05:45:06.588Z,93.04
2016-11-01T05:46:06.242Z,92.94
2016-11-01T05:47:06.512Z,92.94
2016-11-01T05:48:06.469Z,93.04
2016-11-01T05:49:06.429Z,92.94
2016-11-01T05:50:06.390Z,92.75
2016-11-01T05:51:06.355Z,92.99
2016-11-01T05:52:06.313Z,92.75
2016-11-01T05:53:06.273Z,92.8
2016-11-01T05:54:05.933Z,93.13
2016-11-01T05:55:06.195Z,93.13
2016-11-01T05:56:06.158Z,93.23
2016-11-01T05:57:06.124Z,93.13
2016-11-01T05:58:06.081Z,93.13
2016-11-01T05:59:06.045Z,92.94
2016-11-01T06:00:05.704Z,93.13
2016-11-01T06:01:05.964Z,92.94
2016-11-01T06:02:05.625Z,92.56
2016-11-01T06:03:05.889Z,92.66
2016-11-01T06:04:05.849Z,92.85
2016-11-01T06:05:05.812Z,92.85
2016-11-01T06:06:05.774Z,93.13
2016-11-01T06:07:05.732Z,93.13
2016-11-01T06:08:05.697Z,93.13
2016-11-01T06:09:05.656Z,93.13
2016-11-01T06:10:05.619Z,93.04
2016-11-01T06:11:05.581Z,93.04
2016-11-01T06:12:05.543Z,93.13
2016-11-01T06:13:05.501Z,93.13
2016-11-01T06:14:05.465Z,92.75
2016-11-01T06:15:05.423Z,92.85
2016-11-01T06:16:05.389Z,93.04
2016-11-01T06:17:05.055Z,92.75
2016-11-01T06:18:05.310Z,92.75
2016-11-01T06:19:05.270Z,92.94
2016-11-01T06:20:04.931Z,92.94
2016-11-01T06:21:04.891Z,92.85
2016-11-01T06:22:05.156Z,92.85
2016-11-01T06:23:04.815Z,92.85
2016-11-01T06:24:05.076Z,92.75
2016-11-01T06:25:05.037Z,92.89
2016-11-01T06:26:04.998Z,93.13
2016-11-01T06:27:04.962Z,92.94
2016-11-01T06:28:04.618Z,92.75
2016-11-01T06:29:04.884Z,93.04
2016-11-01T06:30:04.846Z,92.94
2016-11-01T06:31:04.807Z,92.94
2016-11-01T06:32:04.766Z,92.94
2016-11-01T06:33:04.731Z,92.85
2016-11-01T06:34:04.690Z,92.66
2016-11-01T06:35:04.350Z,92.66
2016-11-01T06:36:04.611Z,92.94
2016-11-01T06:37:04.575Z,92.66
2016-11-01T06:38:04.542Z,92.51
2016-11-01T06:39:04.498Z,92.85
2016-11-01T06:40:04.457Z,92.66
2016-11-01T06:41:04.420Z,92.75
2016-11-01T06:42:04.383Z,92.75
2016-11-01T06:43:04.350Z,92.66
2016-11-01T06:44:04.002Z,92.66
2016-11-01T06:45:04.272Z,92.75
2016-11-01T06:46:04.240Z,92.8
2016-11-01T06:47:04.192Z,93.18
2016-11-01T06:48:04.147Z,92.66
2016-11-01T06:49:03.815Z,92.75
2016-11-01T06:50:03.770Z,92.7
2016-11-01T06:51:03.734Z,92.7
2016-11-01T06:52:03.995Z,92.8
2016-11-01T06:53:03.957Z,92.85
2016-11-01T06:54:03.921Z,92.75
2016-11-01T06:55:03.879Z,92.27
2016-11-01T06:56:03.842Z,92.18
2016-11-01T06:57:03.804Z,92.85
2016-11-01T06:58:03.767Z,92.75
2016-11-01T06:59:03.724Z,92.27
2016-11-01T07:00:03.687Z,92.22
2016-11-01T07:01:03.345Z,92.22
2016-11-01T07:02:03.610Z,92.13
2016-11-01T07:03:03.573Z,92.13
2016-11-01T07:04:03.230Z,92.51
2016-11-01T07:05:03.493Z,92.13
2016-11-01T07:06:03.456Z,92.32
2016-11-01T07:07:03.113Z,92.22
2016-11-01T07:08:03.380Z,92.13
2016-11-01T07:09:03.342Z,92.03
2016-11-01T07:10:03.303Z,92.41
2016-11-01T07:11:03.265Z,92.22
2016-11-01T07:12:03.225Z,91.85
2016-11-01T07:13:03.191Z,91.75
2016-11-01T07:14:03.153Z,91.75
2016-11-01T07:15:03.113Z,92.13
2016-11-01T07:16:03.075Z,91.85
2016-11-01T07:17:02.734Z,91.85
2016-11-01T07:18:03.001Z,91.94
2016-11-01T07:19:02.957Z,92.32
2016-11-01T07:20:02.921Z,92.32
2016-11-01T07:21:02.890Z,92.03
2016-11-01T07:22:02.845Z,92.32
2016-11-01T07:23:02.808Z,92.32
2016-11-01T07:24:02.768Z,91.94
2016-11-01T07:25:02.429Z,91.85
2016-11-01T07:26:02.688Z,91.85
2016-11-01T07:27:02.655Z,91.85
2016-11-01T07:28:02.617Z,91.85
2016-11-01T07:29:02.580Z,91.37
2016-11-01T07:30:02.544Z,91.75
2016-11-01T07:31:02.199Z,91.56
2016-11-01T07:32:02.464Z,91.75
2016-11-01T07:33:02.424Z,91.37
2016-11-01T07:34:02.087Z,91.66
2016-11-01T07:35:02.348Z,91.56
2016-11-01T07:36:02.308Z,91.75
2016-11-01T07:37:02.272Z,91.08
2016-11-01T07:38:02.234Z,91.18
2016-11-01T07:39:02.196Z,90.99
2016-11-01T07:40:02.160Z,90.99
2016-11-01T07:41:02.120Z,91.28
2016-11-01T07:42:02.082Z,91.28
2016-11-01T07:43:02.042Z,91.37
2016-11-01T07:44:02.004Z,90.99
2016-11-01T07:45:01.971Z,90.8
2016-11-01T07:46:01.628Z,90.99
2016-11-01T07:47:01.892Z,90.42
2016-11-01T07:48:01.856Z,90.61
2016-11-01T07:49:01.819Z,90.52
2016-11-01T07:50:01.780Z,90.56
2016-11-01T07:51:01.741Z,90.52
2016-11-01T07:52:01.404Z,90.47
2016-11-01T07:53:01.370Z,90.61
2016-11-01T07:54:01.629Z,90.56
2016-11-01T07:55:01.593Z,90.47
2016-11-01T07:56:01.256Z,90.47
2016-11-01T07:57:01.520Z,90.37
2016-11-01T07:58:01.480Z,90.56
2016-11-01T07:59:01.443Z,89.99
2016-11-01T08:00:01.103Z,90.28
2016-11-01T08:01:01.365Z,90.18
2016-11-01T08:02:01.329Z,89.99
2016-11-01T08:03:01.291Z,89.61
2016-11-01T08:04:01.253Z,89.51
2016-11-01T08:05:01.215Z,89.7
2016-11-01T08:06:01.176Z,89.23
2016-11-01T08:07:01.141Z,89.32
2016-11-01T08:08:00.803Z,89.14
2016-11-01T08:09:01.065Z,88.56
2016-11-01T08:10:01.028Z,88.56
2016-11-01T08:11:00.995Z,88.28
2016-11-01T08:12:00.959Z,88.51
2016-11-01T08:13:00.615Z,87.99
2016-11-01T08:14:00.879Z,88.04
2016-11-01T08:15:00.538Z,87.85
2016-11-01T08:16:00.507Z,87.27
2016-11-01T08:17:00.769Z,87.08
2016-11-01T08:18:00.730Z,86.7
2016-11-01T08:19:00.694Z,86.42
2016-11-01T08:20:00.657Z,86.22
2016-11-01T08:21:00.620Z,86.7
2016-11-01T08:22:00.591Z,86.42
2016-11-01T08:23:00.545Z,86.38
2016-11-01T08:24:00.507Z,86.28
2016-11-01T08:25:00.168Z,86.76
2016-11-01T08:26:00.431Z,86.47
2016-11-01T08:27:00.396Z,87.13
2016-11-01T08:28:00.356Z,86.94
2016-11-01T08:29:00.319Z,86.85
2016-11-01T08:30:00.280Z,87.13
2016-11-01T08:31:00.247Z,87.04
2016-11-01T08:31:59.906Z,87.23
2016-11-01T08:33:00.173Z,87.04
2016-11-01T08:34:00.136Z,86.85
2016-11-01T08:35:00.097Z,87.13
2016-11-01T08:36:00.055Z,87.23
2016-11-01T08:36:59.723Z,87.42
2016-11-01T08:37:59.990Z,87.61
2016-11-01T08:38:59.641Z,87.9
2016-11-01T08:39:59.908Z,87.8
2016-11-01T08:40:59.873Z,87.71
2016-11-01T08:41:59.835Z,87.42
2016-11-01T08:42:59.796Z,87.61
2016-11-01T08:43:59.763Z,87.23
2016-11-01T08:44:59.723Z,87.08
2016-11-01T08:45:59.683Z,86.85
2016-11-01T08:46:59.648Z,87.27
2016-11-01T08:47:59.615Z,87.18
2016-11-01T08:48:59.577Z,86.8
2016-11-01T08:49:59.236Z,86.8
2016-11-01T08:50:59.498Z,87.27
2016-11-01T08:51:59.159Z,86.61
2016-11-01T08:52:59.425Z,86.61
2016-11-01T08:53:59.086Z,86.42
2016-11-01T08:54:59.354Z,85.94
2016-11-01T08:55:59.012Z,85.94
2016-11-01T08:56:59.273Z,85.47
2016-11-01T08:57:59.236Z,84.99
2016-11-01T08:58:59.199Z,84.89
2016-11-01T08:59:59.161Z,84.99
2016-11-01T09:00:59.127Z,84.7
2016-11-01T09:01:58.785Z,84.7
2016-11-01T09:02:59.052Z,84.8
2016-11-01T09:03:58.713Z,84.52
2016-11-01T09:04:58.975Z,84.04
2016-11-01T09:05:58.636Z,84.33
2016-11-01T09:06:58.903Z,84.33
2016-11-01T09:07:58.864Z,84.7
2016-11-01T09:08:58.524Z,84.52
2016-11-01T09:09:58.791Z,83.18
2016-11-01T09:10:58.755Z,84.27
2016-11-01T09:11:58.713Z,83.56
2016-11-01T09:12:58.682Z,83.28
2016-11-01T09:13:58.639Z,83.56
2016-11-01T09:14:58.606Z,82.99
2016-11-01T09:15:58.567Z,83.22
2016-11-01T09:16:58.532Z,83.32
2016-11-01T09:17:58.492Z,83.51
2016-11-01T09:18:58.154Z,83.41
2016-11-01T09:19:58.420Z,83.61
2016-11-01T09:20:58.385Z,83.41
2016-11-01T09:21:58.348Z,82.93
2016-11-01T09:22:58.309Z,82.56
2016-11-01T09:23:58.272Z,82.27
2016-11-01T09:24:58.239Z,81.98
2016-11-01T09:25:58.197Z,81.93
2016-11-01T09:26:58.165Z,81.07
2016-11-01T09:27:57.824Z,80.69
2016-11-01T09:28:58.089Z,80.44
2016-11-01T09:29:57.751Z,79.97
2016-11-01T09:30:58.017Z,79.21
2016-11-01T09:31:57.682Z,79.88
2016-11-01T09:32:57.944Z,79.02
2016-11-01T09:33:57.908Z,79.21
2016-11-01T09:34:57.872Z,79.11
2016-11-01T09:35:57.835Z,79.02
2016-11-01T09:36:57.498Z,78.73
2016-11-01T09:37:57.463Z,78.35
2016-11-01T09:38:57.727Z,78.35
2016-11-01T09:39:57.696Z,77.91
2016-11-01T09:40:57.355Z,77.25
2016-11-01T09:41:57.619Z,76.86
2016-11-01T09:42:57.584Z,76.77
2016-11-01T09:43:57.547Z,76.82
2016-11-01T09:44:57.512Z,77.06
2016-11-01T09:45:57.475Z,77.2
2016-11-01T09:46:57.136Z,76.67
2016-11-01T09:47:57.103Z,77.44
2016-11-01T09:48:57.371Z,77.06
2016-11-01T09:49:57.029Z,76.48
2016-11-01T09:50:57.299Z,76.2
2016-11-01T09:51:56.958Z,75.72
2016-11-01T09:52:57.239Z,75.15
2016-11-01T09:53:57.191Z,74.96
2016-11-01T09:54:57.152Z,74.67
2016-11-01T09:55:56.813Z,73.75
2016-11-01T09:56:56.780Z,73.56
2016-11-01T09:57:57.046Z,72.99
2016-11-01T09:58:57.011Z,73.37
2016-11-01T09:59:56.975Z,72.23
2016-11-01T10:00:56.639Z,71.84
2016-11-01T10:01:56.905Z,72.23
2016-11-01T10:02:56.884Z,72.32
2016-11-01T10:03:56.537Z,72.36
2016-11-01T10:04:56.497Z,72.36
2016-11-01T10:05:56.761Z,71.59
2016-11-01T10:06:56.730Z,70.96
2016-11-01T10:07:56.394Z,69.24
2016-11-01T10:08:56.660Z,66.06
2016-11-01T10:09:56.325Z,63.64
2016-11-01T10:10:56.595Z,60.35
2016-11-01T10:11:56.559Z,57.43
2016-11-01T10:12:56.539Z,55.57
2016-11-01T10:13:56.499Z,55.29
2016-11-01T10:14:56.459Z,55
2016-11-01T10:15:56.175Z,54.52
2016-11-01T10:16:56.411Z,53.68
2016-11-01T10:17:56.362Z,54.04
2016-11-01T10:18:56.333Z,53.94
2016-11-01T10:19:56.300Z,53.27
2016-11-01T10:20:56.284Z,51.45
2016-11-01T10:21:55.937Z,49.19
2016-11-01T10:22:56.213Z,47.68
2016-11-01T10:23:56.179Z,47.31
2016-11-01T10:24:56.147Z,46.45
2016-11-01T10:25:56.121Z,46.84
2016-11-01T10:26:56.085Z,47.2
2016-11-01T10:27:56.056Z,46.62
2016-11-01T10:28:56.024Z,45.97
2016-11-01T10:29:55.691Z,44.72
2016-11-01T10:30:55.664Z,43.97
2016-11-01T10:31:55.935Z,42.36
2016-11-01T10:32:55.913Z,42.16
2016-11-01T10:33:55.873Z,41.97
2016-11-01T10:34:55.546Z,41.61
2016-11-01T10:35:55.515Z,40.84
2016-11-01T10:36:55.795Z,40.09
2016-11-01T10:37:55.761Z,40.74
2016-11-01T10:38:55.431Z,41.41
2016-11-01T10:39:55.703Z,41.03
2016-11-01T10:40:55.711Z,40.37
2016-11-01T10:41:55.647Z,39.91
2016-11-01T10:42:55.622Z,38.95
2016-11-01T10:43:55.590Z,38.97
2016-11-01T10:44:55.262Z,39.45
2016-11-01T10:45:55.538Z,38.95
2016-11-01T10:46:55.207Z,39.24
2016-11-01T10:47:55.485Z,39.43
2016-11-01T10:48:55.454Z,38.97
2016-11-01T10:49:55.129Z,39.06
2016-11-01T10:50:55.401Z,38.97
2016-11-01T10:51:55.372Z,38.49
2016-11-01T10:52:55.048Z,38.12
2016-11-01T10:53:55.020Z,37.35
2016-11-01T10:54:55.300Z,36.88
2016-11-01T10:55:55.266Z,36.32
2016-11-01T10:56:55.241Z,36.5
2016-11-01T10:57:55.215Z,37.15
2016-11-01T10:58:55.186Z,38.01
2016-11-01T10:59:55.165Z,38.37
2016-11-01T11:00:55.134Z,38.26
2016-11-01T11:01:55.108Z,38.35
2016-11-01T11:02:55.083Z,38.45
2016-11-01T11:03:54.753Z,38.54
2016-11-01T11:04:55.030Z,38.28
2016-11-01T11:05:55.001Z,37.91
2016-11-01T11:06:54.972Z,38.46
2016-11-01T11:07:54.947Z,38.95
2016-11-01T11:08:54.631Z,39.31
2016-11-01T11:09:54.893Z,39.12
2016-11-01T11:10:54.560Z,39.03
2016-11-01T11:11:54.536Z,39.14
2016-11-01T11:12:54.811Z,39.03
2016-11-01T11:13:54.783Z,39.12
2016-11-01T11:14:54.453Z,39.12
2016-11-01T11:15:54.773Z,39.2
2016-11-01T11:16:54.704Z,39.59
2016-11-01T11:17:54.674Z,39.59
2016-11-01T11:18:54.643Z,40.16
2016-11-01T11:19:54.313Z,40.55
2016-11-01T11:20:54.589Z,40.34
2016-11-01T11:21:54.559Z,40.7
2016-11-01T11:22:54.538Z,41.56
2016-11-01T11:23:54.541Z,41.83
2016-11-01T11:24:54.480Z,42.12
2016-11-01T11:25:54.463Z,43.26
2016-11-01T11:26:54.119Z,43.84
2016-11-01T11:27:54.425Z,44.58
2016-11-01T11:28:54.363Z,44.87
2016-11-01T11:29:54.331Z,45.81
2016-11-01T11:30:54.302Z,46.94
2016-11-01T11:31:54.478Z,47.61
2016-11-01T11:32:54.248Z,48.28
2016-11-01T11:33:54.216Z,48.93
2016-11-01T11:34:54.194Z,49.12
2016-11-01T11:35:54.154Z,49.69
2016-11-01T11:36:54.122Z,50.24
2016-11-01T11:37:54.097Z,50.73
2016-11-01T11:38:54.065Z,51.1
2016-11-01T11:39:54.035Z,50.43
2016-11-01T11:40:54.013Z,51.18
2016-11-01T11:41:53.980Z,52.23
2016-11-01T11:42:53.943Z,52.71
2016-11-01T11:43:53.610Z,53.19
2016-11-01T11:44:53.583Z,53.64
2016-11-01T11:45:53.848Z,53.55
2016-11-01T11:46:53.518Z,53.26
2016-11-01T11:47:53.788Z,54.22
2016-11-01T11:48:53.756Z,54.41
2016-11-01T11:49:53.726Z,54.7
2016-11-01T11:50:53.695Z,55.34
2016-11-01T11:51:53.664Z,55.91
2016-11-01T11:52:53.630Z,55.82
2016-11-01T11:53:53.597Z,55.82
2016-11-01T11:54:53.568Z,55.82
2016-11-01T11:55:53.536Z,56.1
2016-11-01T11:56:53.203Z,56.59
2016-11-01T11:57:53.481Z,57.35
2016-11-01T11:58:53.437Z,57.8
2016-11-01T11:59:53.102Z,58.18
2016-11-01T12:00:53.374Z,58.18
2016-11-01T12:01:53.343Z,58.18
2016-11-01T12:02:53.309Z,57.99
2016-11-01T12:03:53.279Z,58.28
2016-11-01T12:04:53.248Z,58.34
2016-11-01T12:05:53.212Z,59.2
2016-11-01T12:06:53.176Z,60.04
2016-11-01T12:07:52.842Z,61.19
2016-11-01T12:08:53.114Z,60.99
2016-11-01T12:09:53.119Z,61.57
2016-11-01T12:10:53.048Z,62.04
2016-11-01T12:11:53.010Z,62.04
2016-11-01T12:12:52.978Z,62.01
2016-11-01T12:13:52.643Z,62.78
2016-11-01T12:14:52.911Z,63.26
2016-11-01T12:15:52.877Z,63.26
2016-11-01T12:16:52.846Z,63.7
2016-11-01T12:17:52.813Z,63.99
2016-11-01T12:18:52.776Z,64.47
2016-11-01T12:19:52.443Z,65.14
2016-11-01T12:20:52.412Z,65.52
2016-11-01T12:21:52.677Z,66.09
2016-11-01T12:22:52.639Z,66.25
2016-11-01T12:23:52.617Z,66.72
2016-11-01T12:24:52.575Z,67.21
2016-11-01T12:25:52.539Z,67.4
2016-11-01T12:26:52.505Z,68.26
2016-11-01T12:27:52.472Z,68.54
2016-11-01T12:28:52.440Z,68.22
2016-11-01T12:29:52.409Z,69.17
2016-11-01T12:30:52.370Z,69.17
2016-11-01T12:31:52.334Z,69.93
2016-11-01T12:32:51.998Z,70.03
2016-11-01T12:33:52.266Z,70.98
2016-11-01T12:34:51.938Z,70.95
2016-11-01T12:35:51.894Z,70.57
2016-11-01T12:36:52.162Z,70.95
2016-11-01T12:37:51.823Z,71.62
2016-11-01T12:38:51.791Z,72
2016-11-01T12:39:52.058Z,72.96
2016-11-01T12:40:52.032Z,72.67
2016-11-01T12:41:51.985Z,72.57
2016-11-01T12:42:51.961Z,72.96
2016-11-01T12:43:51.919Z,72.09
2016-11-01T12:44:51.881Z,72.09
2016-11-01T12:45:51.846Z,72.76
2016-11-01T12:46:51.812Z,72.96
2016-11-01T12:47:51.780Z,72.28
2016-11-01T12:48:51.742Z,72.76
2016-11-01T12:49:51.711Z,72.76
2016-11-01T12:50:51.675Z,72.76
2016-11-01T12:51:51.338Z,72.76
2016-11-01T12:52:51.601Z,73.33
2016-11-01T12:53:51.576Z,73.33